createdAt,value
2023-02-11T00:00:19.172Z,86.10
2023-02-11T00:02:47.895Z,86.67
2023-02-11T00:05:15.667Z,86.57
2023-02-11T00:07:42.839Z,86.92
2023-02-11T00:10:10.250Z,86.77
2023-02-11T00:12:37.438Z,86.68
2023-02-11T00:15:05.305Z,86.76
2023-02-11T00:17:33.296Z,86.85
2023-02-11T00:20:00.279Z,86.69
2023-02-11T00:22:27.257Z,86.78
2023-02-11T00:24:54.391Z,86.78
2023-02-11T00:27:21.329Z,87.03
2023-02-11T00:29:48.340Z,87.12
2023-02-11T00:32:15.304Z,86.84
2023-02-11T00:34:42.588Z,87.21
2023-02-11T00:37:09.506Z,87.29
2023-02-11T00:39:37.152Z,87.28
2023-02-11T00:42:04.426Z,87.23
2023-02-11T00:44:31.458Z,87.38
2023-02-11T00:46:58.533Z,87.39
2023-02-11T00:49:25.556Z,87.31
2023-02-11T00:51:52.538Z,87.14
2023-02-11T00:54:20.434Z,87.46
2023-02-11T00:56:47.397Z,87.13
2023-02-11T00:59:14.345Z,87.31
2023-02-11T01:01:44.273Z,87.31
2023-02-11T01:04:11.356Z,87.01
2023-02-11T01:06:38.382Z,86.82
2023-02-11T01:09:05.973Z,86.79
2023-02-11T01:11:35.653Z,86.90
2023-02-11T01:14:02.784Z,86.96
2023-02-11T01:16:29.846Z,86.90
2023-02-11T01:18:57.058Z,86.84
2023-02-11T01:21:23.974Z,86.58
2023-02-11T01:23:51.502Z,86.40
2023-02-11T01:26:18.728Z,86.42
2023-02-11T01:28:45.696Z,86.70
2023-02-11T01:31:12.920Z,86.36
2023-02-11T01:33:40.402Z,86.56
2023-02-11T01:36:07.832Z,86.64
2023-02-11T01:38:35.316Z,86.52
2023-02-11T01:41:04.085Z,86.97
2023-02-11T01:43:32.500Z,86.50
2023-02-11T01:45:59.471Z,86.52
2023-02-11T01:48:29.582Z,86.30
2023-02-11T01:51:03.216Z,86.11
2023-02-11T01:53:48.939Z,86.38
2023-02-11T01:56:36.818Z,86.44
2023-02-11T01:59:06.394Z,86.06
2023-02-11T02:01:34.719Z,85.97
2023-02-11T02:04:05.713Z,85.93
2023-02-11T02:06:37.528Z,85.73
2023-02-11T02:09:11.992Z,85.34
2023-02-11T02:11:38.971Z,84.85
2023-02-11T02:14:06.220Z,84.54
2023-02-11T02:16:37.257Z,84.15
2023-02-11T02:19:04.299Z,83.74
2023-02-11T02:21:46.208Z,83.26
2023-02-11T02:24:31.970Z,82.67
2023-02-11T02:27:17.416Z,82.17
2023-02-11T02:29:53.494Z,81.80
2023-02-11T02:32:26.458Z,81.88
2023-02-11T02:35:03.148Z,81.92
2023-02-11T02:37:33.114Z,82.39
2023-02-11T02:40:03.123Z,82.45
2023-02-11T02:42:31.249Z,82.43
2023-02-11T02:44:58.449Z,82.89
2023-02-11T02:47:25.440Z,83.05
2023-02-11T02:49:52.575Z,82.90
2023-02-11T02:52:38.274Z,82.90
2023-02-11T02:55:09.058Z,82.55
2023-02-11T02:57:36.111Z,82.24
2023-02-11T03:00:12.212Z,82.48
2023-02-11T03:02:39.213Z,81.38
2023-02-11T03:05:06.088Z,81.48
2023-02-11T03:07:33.050Z,81.42
2023-02-11T03:10:08.300Z,81.85
2023-02-11T03:12:36.548Z,81.54
2023-02-11T03:15:06.132Z,81.78
2023-02-11T03:17:34.229Z,81.65
2023-02-11T03:20:02.054Z,81.37
2023-02-11T03:22:35.772Z,81.07
2023-02-11T03:25:03.458Z,80.80
2023-02-11T03:27:35.695Z,81.11
2023-02-11T03:30:10.965Z,81.25
2023-02-11T03:32:52.152Z,81.47
2023-02-11T03:35:24.797Z,81.45
2023-02-11T03:38:00.858Z,81.40
2023-02-11T03:40:38.916Z,81.36
2023-02-11T03:43:09.200Z,81.55
2023-02-11T03:45:37.286Z,81.76
2023-02-11T03:48:06.906Z,82.25
2023-02-11T03:50:36.407Z,82.33
2023-02-11T03:53:03.838Z,82.47
2023-02-11T03:55:33.530Z,82.25
2023-02-11T03:58:00.425Z,82.68
2023-02-11T04:00:33.593Z,82.90
2023-02-11T04:03:00.901Z,82.99
2023-02-11T04:05:27.898Z,82.81
2023-02-11T04:07:56.967Z,83.39
2023-02-11T04:10:23.905Z,83.77
2023-02-11T04:12:50.820Z,83.37
2023-02-11T04:15:18.192Z,83.42
2023-02-11T04:17:45.176Z,83.44
2023-02-11T04:20:12.468Z,83.75
2023-02-11T04:22:39.734Z,83.30
2023-02-11T04:25:07.056Z,83.61
2023-02-11T04:27:34.173Z,83.61
2023-02-11T04:30:01.058Z,83.44
2023-02-11T04:32:28.129Z,83.34
2023-02-11T04:34:55.556Z,83.35
2023-02-11T04:37:22.632Z,83.45
2023-02-11T04:39:49.557Z,83.51
2023-02-11T04:42:16.635Z,83.20
2023-02-11T04:44:43.747Z,83.44
2023-02-11T04:47:12.858Z,83.64
2023-02-11T04:49:39.801Z,83.49
2023-02-11T04:52:06.831Z,83.36
2023-02-11T04:54:33.810Z,83.40
2023-02-11T04:57:00.926Z,83.65
2023-02-11T04:59:27.966Z,83.98
2023-02-11T05:01:55.064Z,83.58
2023-02-11T05:04:22.209Z,83.61
2023-02-11T05:06:49.277Z,83.51
2023-02-11T05:09:17.098Z,83.60
2023-02-11T05:11:44.136Z,83.74
2023-02-11T05:14:11.226Z,83.54
2023-02-11T05:16:38.331Z,83.40
2023-02-11T05:19:05.362Z,83.42
2023-02-11T05:21:35.535Z,83.33
2023-02-11T05:24:02.541Z,83.36
2023-02-11T05:26:29.519Z,83.36
2023-02-11T05:28:56.556Z,83.31
2023-02-11T05:31:23.493Z,83.36
2023-02-11T05:33:50.538Z,83.59
2023-02-11T05:36:17.628Z,83.57
2023-02-11T05:38:44.567Z,83.37
2023-02-11T05:41:12.042Z,83.30
2023-02-11T05:43:39.597Z,83.60
2023-02-11T05:46:06.990Z,83.60
2023-02-11T05:48:34.178Z,83.73
2023-02-11T05:51:01.126Z,83.93
2023-02-11T05:53:28.518Z,83.89
2023-02-11T05:55:55.736Z,84.16
2023-02-11T05:58:22.797Z,83.73
2023-02-11T06:00:49.887Z,84.19
2023-02-11T06:03:16.810Z,84.52
2023-02-11T06:05:44.609Z,84.21
2023-02-11T06:08:12.063Z,84.32
2023-02-11T06:10:39.260Z,84.27
2023-02-11T06:13:06.318Z,84.34
2023-02-11T06:15:33.287Z,84.61
2023-02-11T06:18:00.281Z,84.69
2023-02-11T06:20:27.501Z,84.68
2023-02-11T06:22:54.582Z,84.74
2023-02-11T06:25:21.667Z,84.96
2023-02-11T06:27:48.633Z,84.58
2023-02-11T06:30:15.684Z,84.76
2023-02-11T06:32:44.916Z,84.87
2023-02-11T06:35:13.145Z,84.29
2023-02-11T06:37:40.974Z,84.64
2023-02-11T06:40:08.189Z,85.15
2023-02-11T06:42:36.386Z,85.04
2023-02-11T06:45:06.202Z,84.89
2023-02-11T06:47:33.613Z,84.34
2023-02-11T06:50:00.932Z,84.22
2023-02-11T06:52:27.996Z,84.27
2023-02-11T06:54:55.045Z,84.00
2023-02-11T06:57:22.043Z,83.88
2023-02-11T06:59:49.272Z,83.70
2023-02-11T07:02:17.987Z,83.73
2023-02-11T07:04:46.012Z,84.02
2023-02-11T07:07:12.987Z,83.79
2023-02-11T07:09:40.020Z,83.65
2023-02-11T07:12:07.221Z,83.24
2023-02-11T07:14:34.323Z,83.34
2023-02-11T07:17:01.324Z,83.32
2023-02-11T07:19:28.280Z,83.20
2023-02-11T07:21:55.458Z,83.33
2023-02-11T07:24:23.610Z,83.00
2023-02-11T07:26:50.690Z,83.38
2023-02-11T07:29:17.733Z,83.35
2023-02-11T07:31:44.788Z,83.42
2023-02-11T07:34:12.176Z,82.93
2023-02-11T07:36:39.357Z,82.81
2023-02-11T07:39:06.522Z,82.60
2023-02-11T07:41:37.795Z,81.71
2023-02-11T07:44:05.304Z,81.57
2023-02-11T07:46:32.920Z,81.59
2023-02-11T07:49:02.516Z,81.43
2023-02-11T07:51:30.342Z,80.56
2023-02-11T07:53:58.313Z,80.25
2023-02-11T07:56:26.226Z,80.88
2023-02-11T07:58:53.540Z,80.96
2023-02-11T08:01:26.112Z,80.58
2023-02-11T08:03:53.206Z,80.70
2023-02-11T08:06:21.227Z,80.44
2023-02-11T08:08:48.587Z,79.94
2023-02-11T08:11:16.880Z,79.65
2023-02-11T08:13:44.527Z,79.52
2023-02-11T08:16:21.079Z,79.37
2023-02-11T08:18:48.566Z,79.17
2023-02-11T08:21:15.840Z,79.13
2023-02-11T08:23:43.674Z,78.52
2023-02-11T08:26:13.902Z,77.94
2023-02-11T08:28:42.002Z,78.71
2023-02-11T08:31:10.469Z,78.83
2023-02-11T08:33:37.534Z,79.02
2023-02-11T08:36:11.543Z,78.93
2023-02-11T08:38:38.777Z,79.01
2023-02-11T08:41:06.120Z,77.84
2023-02-11T08:43:33.640Z,77.69
2023-02-11T08:46:02.177Z,77.70
2023-02-11T08:48:29.578Z,77.64
2023-02-11T08:50:56.860Z,77.91
2023-02-11T08:53:23.883Z,78.55
2023-02-11T08:55:52.219Z,78.36
2023-02-11T08:58:19.685Z,78.08
2023-02-11T09:00:47.406Z,78.73
2023-02-11T09:03:15.558Z,79.04
2023-02-11T09:05:43.317Z,78.94
2023-02-11T09:08:15.067Z,79.63
2023-02-11T09:10:43.965Z,79.05
2023-02-11T09:13:29.032Z,79.51
2023-02-11T09:16:04.782Z,79.90
2023-02-11T09:18:54.480Z,81.11
2023-02-11T09:21:37.464Z,81.39
2023-02-11T09:24:27.157Z,81.23
2023-02-11T09:27:16.318Z,80.64
2023-02-11T09:29:45.448Z,79.85
2023-02-11T09:32:28.579Z,80.17
2023-02-11T09:34:59.380Z,80.56
2023-02-11T09:37:26.572Z,80.51
2023-02-11T09:39:53.917Z,80.97
2023-02-11T09:42:44.166Z,80.91
2023-02-11T09:45:13.829Z,80.84
2023-02-11T09:47:46.688Z,81.29
2023-02-11T09:50:15.632Z,81.66
2023-02-11T09:53:09.494Z,82.07
2023-02-11T09:55:39.946Z,82.93
2023-02-11T09:58:33.133Z,83.47
2023-02-11T10:01:00.503Z,83.74
2023-02-11T10:03:46.488Z,83.84
2023-02-11T10:06:13.592Z,84.08
2023-02-11T10:08:40.540Z,84.18
2023-02-11T10:11:20.096Z,84.14
2023-02-11T10:14:08.061Z,84.71
2023-02-11T10:16:51.679Z,84.86
2023-02-11T10:19:25.118Z,84.87
2023-02-11T10:21:59.019Z,85.02
2023-02-11T10:24:29.019Z,85.34
2023-02-11T10:26:56.132Z,84.89
2023-02-11T10:29:31.493Z,85.63
2023-02-11T10:31:59.694Z,84.88
2023-02-11T10:34:26.854Z,84.33
2023-02-11T10:36:53.865Z,84.91
2023-02-11T10:39:22.672Z,84.27
2023-02-11T10:41:52.691Z,84.19
2023-02-11T10:44:26.565Z,84.31
2023-02-11T10:46:54.704Z,83.72
2023-02-11T10:49:39.633Z,83.38
2023-02-11T10:52:35.688Z,83.03
2023-02-11T10:55:24.120Z,82.96
2023-02-11T10:57:54.162Z,82.54
2023-02-11T11:00:24.380Z,82.38
2023-02-11T11:02:58.804Z,81.61
2023-02-11T11:05:31.456Z,81.30
2023-02-11T11:07:59.831Z,80.36
2023-02-11T11:10:43.606Z,79.62
2023-02-11T11:13:23.049Z,79.00
2023-02-11T11:16:06.575Z,78.73
2023-02-11T11:18:33.588Z,77.65
2023-02-11T11:21:02.191Z,77.11
2023-02-11T11:23:30.552Z,77.00
2023-02-11T11:26:17.798Z,76.79
2023-02-11T11:28:50.817Z,77.23
2023-02-11T11:31:20.823Z,77.36
2023-02-11T11:33:48.436Z,77.06
2023-02-11T11:36:21.407Z,76.94
2023-02-11T11:38:51.029Z,76.53
2023-02-11T11:41:33.664Z,76.68
2023-02-11T11:44:19.488Z,76.95
2023-02-11T11:46:47.530Z,76.94
2023-02-11T11:49:28.748Z,77.04
2023-02-11T11:52:03.477Z,77.26
2023-02-11T11:54:31.937Z,77.46
2023-02-11T11:57:18.956Z,78.03
2023-02-11T11:59:46.289Z,78.20
2023-02-11T12:02:16.267Z,78.12
2023-02-11T12:04:54.446Z,77.94
2023-02-11T12:07:31.959Z,77.82
2023-02-11T12:10:23.588Z,78.01
2023-02-11T12:12:57.380Z,77.95
2023-02-11T12:15:27.528Z,77.30
2023-02-11T12:18:13.038Z,77.11
2023-02-11T12:20:59.504Z,77.42
2023-02-11T12:23:45.455Z,77.03
2023-02-11T12:26:12.443Z,76.99
2023-02-11T12:28:49.530Z,77.53
2023-02-11T12:31:22.465Z,78.01
2023-02-11T12:33:55.761Z,77.87
2023-02-11T12:36:37.960Z,77.94
2023-02-11T12:39:23.746Z,77.71
2023-02-11T12:42:12.337Z,77.56
2023-02-11T12:44:42.659Z,77.65
2023-02-11T12:47:29.715Z,77.80
2023-02-11T12:50:00.103Z,77.66
2023-02-11T12:52:30.326Z,78.28
2023-02-11T12:55:14.623Z,78.30
2023-02-11T12:57:42.128Z,78.77
2023-02-11T13:00:23.835Z,78.82
2023-02-11T13:02:51.628Z,78.95
2023-02-11T13:05:22.902Z,79.29
2023-02-11T13:07:50.684Z,79.49
2023-02-11T13:10:35.303Z,79.55
2023-02-11T13:13:17.544Z,79.58
2023-02-11T13:15:47.575Z,80.12
2023-02-11T13:18:23.251Z,80.33
2023-02-11T13:20:55.297Z,80.14
2023-02-11T13:23:27.569Z,80.92
2023-02-11T13:26:19.044Z,80.78
2023-02-11T13:28:54.571Z,81.02
2023-02-11T13:31:21.843Z,81.28
2023-02-11T13:33:50.060Z,81.78
2023-02-11T13:36:18.395Z,81.99
2023-02-11T13:38:57.419Z,82.47
2023-02-11T13:41:41.492Z,83.29
2023-02-11T13:44:11.593Z,84.20
2023-02-11T13:46:59.763Z,85.14
2023-02-11T13:49:43.276Z,85.73
2023-02-11T13:52:26.750Z,87.31
2023-02-11T13:57:37.698Z,87.74
2023-02-11T14:00:30.432Z,88.08
2023-02-11T14:03:39.559Z,88.48
2023-02-11T14:06:36.630Z,89.23
2023-02-11T14:09:10.028Z,89.57
2023-02-11T14:11:42.599Z,89.68
2023-02-11T14:14:28.859Z,89.98
2023-02-11T14:17:01.588Z,89.83
2023-02-11T14:19:36.297Z,90.42
2023-02-11T14:22:26.996Z,90.82
2023-02-11T14:24:59.608Z,90.60
2023-02-11T14:28:05.643Z,91.32
2023-02-11T14:30:43.160Z,91.73
2023-02-11T14:33:16.843Z,92.69
2023-02-11T14:36:05.995Z,93.62
2023-02-11T14:38:52.262Z,93.96
2023-02-11T14:41:28.084Z,94.61
2023-02-11T14:44:05.664Z,95.27
2023-02-11T14:46:33.931Z,95.81
2023-02-11T14:49:02.828Z,95.65
2023-02-11T14:51:41.509Z,95.49
2023-02-11T14:54:13.789Z,96.24
2023-02-11T14:56:42.110Z,95.74
2023-02-11T14:59:22.248Z,95.63
2023-02-11T15:01:51.156Z,95.34
2023-02-11T15:04:24.504Z,94.91
2023-02-11T15:06:51.716Z,94.58
2023-02-11T15:09:24.512Z,95.01
2023-02-11T15:11:51.920Z,95.02
2023-02-11T15:14:25.008Z,95.31
2023-02-11T15:16:56.346Z,95.87
2023-02-11T15:19:33.823Z,97.33
2023-02-11T15:22:02.443Z,98.58
2023-02-11T15:24:31.328Z,98.52
2023-02-11T15:26:58.226Z,98.78
2023-02-11T15:29:26.969Z,98.44
2023-02-11T15:32:05.059Z,97.74
2023-02-11T15:34:33.070Z,97.07
2023-02-11T15:37:00.123Z,97.13
2023-02-11T15:39:41.336Z,97.55
2023-02-11T15:42:17.061Z,97.10
2023-02-11T15:44:44.345Z,97.24
2023-02-11T15:47:12.576Z,97.60
2023-02-11T15:49:43.775Z,97.99
2023-02-11T15:52:11.870Z,98.10
2023-02-11T15:54:39.664Z,98.54
2023-02-11T15:57:14.955Z,99.06
2023-02-11T15:59:46.548Z,99.51
2023-02-11T16:02:18.966Z,100.00
2023-02-11T16:04:50.030Z,100.00
2023-02-11T16:07:36.044Z,100.00
2023-02-11T16:10:03.391Z,100.00
2023-02-11T16:12:30.358Z,100.00
2023-02-11T16:14:59.956Z,100.00
2023-02-11T16:17:29.423Z,100.00
2023-02-11T16:19:57.141Z,100.00
2023-02-11T17:00:44.494Z,100.00
2023-02-11T17:03:17.337Z,100.00
2023-02-11T17:19:15.198Z,100.00
2023-02-11T17:21:43.221Z,100.00
2023-02-11T17:24:11.417Z,100.00
2023-02-11T17:26:39.058Z,100.00
2023-02-11T17:29:11.515Z,100.00
2023-02-11T17:31:44.278Z,100.00
2023-02-11T17:34:12.000Z,100.00
2023-02-11T17:36:41.530Z,100.00
2023-02-11T17:39:08.946Z,100.00
2023-02-11T17:41:40.346Z,100.00
2023-02-11T17:44:08.847Z,100.00
2023-02-11T17:46:37.199Z,100.00
2023-02-11T17:49:04.804Z,100.00
2023-02-11T17:51:31.779Z,100.00
2023-02-11T17:54:00.271Z,100.00
2023-02-11T17:56:27.596Z,100.00
2023-02-11T17:58:55.056Z,100.00
2023-02-11T18:01:22.137Z,100.00
2023-02-11T18:03:49.519Z,100.00
2023-02-11T18:06:16.583Z,100.00
2023-02-11T18:08:44.088Z,100.00
2023-02-11T18:11:12.413Z,100.00
2023-02-11T18:13:39.661Z,100.00
2023-02-11T18:16:08.677Z,100.00
2023-02-11T18:18:36.098Z,100.00
2023-02-11T18:21:08.622Z,100.00
2023-02-11T18:23:36.724Z,100.00
2023-02-11T18:26:07.097Z,100.00
2023-02-11T18:28:34.600Z,100.00
2023-02-11T18:31:02.444Z,100.00
2023-02-11T18:33:30.372Z,100.00
2023-02-11T18:36:00.856Z,100.00
2023-02-11T18:38:27.872Z,100.00
2023-02-11T18:40:57.454Z,100.00
2023-02-11T18:43:24.516Z,100.00
2023-02-11T18:45:51.844Z,100.00
2023-02-11T18:48:19.290Z,100.00
2023-02-11T18:50:46.826Z,100.00
2023-02-11T18:53:16.128Z,100.00
2023-02-11T18:55:44.203Z,100.00
2023-02-11T18:58:11.268Z,100.00
2023-02-11T19:00:42.555Z,100.00
2023-02-11T19:03:09.863Z,100.00
2023-02-11T19:05:47.644Z,100.00
2023-02-11T19:08:15.847Z,100.00
2023-02-11T19:10:43.798Z,100.00
2023-02-11T19:13:11.357Z,100.00
2023-02-11T19:15:42.380Z,100.00
2023-02-11T19:18:11.096Z,100.00
2023-02-11T19:20:44.932Z,100.00
2023-02-11T19:23:14.229Z,100.00
2023-02-11T19:25:46.089Z,100.00
2023-02-11T19:28:13.473Z,100.00
2023-02-11T19:30:40.667Z,100.00
2023-02-11T19:33:10.125Z,100.00
2023-02-11T19:35:37.384Z,100.00
2023-02-11T19:38:07.804Z,100.00
2023-02-11T19:40:34.862Z,100.00
2023-02-11T19:43:01.843Z,100.00
2023-02-11T19:45:28.974Z,100.00
2023-02-11T19:48:03.354Z,100.00
2023-02-11T19:50:34.990Z,100.00
2023-02-11T19:53:05.108Z,100.00
2023-02-11T19:55:34.518Z,100.00
2023-02-11T19:58:01.484Z,100.00
2023-02-11T20:00:28.448Z,100.00
2023-02-11T20:02:55.624Z,100.00
2023-02-11T20:05:22.573Z,100.00
2023-02-11T20:07:49.728Z,100.00
2023-02-11T20:10:17.009Z,100.00
2023-02-11T20:12:43.985Z,100.00
2023-02-11T20:15:10.928Z,100.00
2023-02-11T20:17:37.976Z,100.00
2023-02-11T20:20:25.661Z,100.00
2023-02-11T20:22:52.729Z,100.00
2023-02-11T20:25:19.649Z,100.00
2023-02-11T20:27:47.901Z,100.00
2023-02-11T20:30:15.346Z,100.00
2023-02-11T20:32:42.323Z,100.00
2023-02-11T20:35:09.829Z,100.00
2023-02-11T20:37:36.832Z,100.00
2023-02-11T20:40:04.020Z,100.00
2023-02-11T20:42:31.114Z,100.00
2023-02-11T20:44:58.084Z,100.00
2023-02-11T20:47:24.978Z,100.00
2023-02-11T20:49:54.128Z,100.00
2023-02-11T20:52:21.944Z,100.00
2023-02-11T20:54:49.078Z,100.00
2023-02-11T20:57:16.061Z,100.00
2023-02-11T20:59:43.115Z,100.00
2023-02-11T21:02:10.438Z,100.00
2023-02-11T21:04:39.254Z,100.00
2023-02-11T21:07:06.590Z,100.00
2023-02-11T21:09:33.698Z,100.00
2023-02-11T21:12:01.132Z,100.00
2023-02-11T21:14:28.807Z,100.00
2023-02-11T21:16:55.820Z,100.00
2023-02-11T21:19:22.846Z,100.00
2023-02-11T21:21:50.012Z,100.00
2023-02-11T21:24:17.324Z,100.00
2023-02-11T21:26:44.280Z,100.00
2023-02-11T21:29:12.026Z,100.00
2023-02-11T21:31:39.378Z,100.00
2023-02-11T21:34:06.761Z,100.00
2023-02-11T21:36:34.411Z,100.00
2023-02-11T21:39:02.024Z,100.00
2023-02-11T21:41:29.155Z,100.00
2023-02-11T21:43:56.752Z,100.00
2023-02-11T21:46:24.002Z,100.00
2023-02-11T21:48:51.164Z,100.00
2023-02-11T21:51:22.266Z,100.00
2023-02-11T21:53:53.038Z,100.00
2023-02-11T21:56:20.139Z,100.00
2023-02-11T21:58:47.231Z,100.00
2023-02-11T22:01:15.283Z,100.00
2023-02-11T22:03:42.613Z,100.00
2023-02-11T22:06:23.233Z,100.00
2023-02-11T22:09:00.024Z,100.00
2023-02-11T22:11:27.016Z,100.00
2023-02-11T22:14:13.328Z,100.00
2023-02-11T22:16:40.633Z,100.00
2023-02-11T22:19:07.986Z,100.00
2023-02-11T22:21:34.981Z,100.00
2023-02-11T22:24:01.951Z,100.00
2023-02-11T22:26:28.926Z,100.00
2023-02-11T22:28:56.957Z,100.00
2023-02-11T22:31:28.839Z,100.00
2023-02-11T22:34:01.371Z,100.00
2023-02-11T23:07:17.187Z,100.00
2023-02-11T23:09:44.297Z,100.00
2023-02-11T23:12:11.990Z,100.00
2023-02-11T23:14:38.983Z,100.00
2023-02-11T23:17:06.112Z,100.00
2023-02-11T23:19:33.496Z,100.00
2023-02-11T23:22:00.847Z,100.00
2023-02-11T23:24:28.009Z,100.00
2023-02-11T23:26:54.968Z,100.00
2023-02-11T23:29:21.880Z,100.00
2023-02-11T23:31:50.416Z,100.00
2023-02-11T23:34:18.604Z,100.00
2023-02-11T23:36:45.831Z,100.00
2023-02-11T23:39:14.655Z,100.00
2023-02-11T23:41:41.667Z,100.00
2023-02-11T23:44:10.254Z,100.00
2023-02-11T23:46:37.566Z,100.00
2023-02-11T23:49:04.599Z,100.00
2023-02-11T23:51:31.554Z,100.00
2023-02-11T23:53:58.492Z,100.00
2023-02-11T23:56:27.460Z,100.00
2023-02-11T23:58:55.677Z,100.00
